createdAt,value
2019-01-06T00:00:02.173Z,4.60
2019-01-06T00:03:00.208Z,4.60
2019-01-06T00:05:48.776Z,4.60
2019-01-06T00:08:32.324Z,4.50
2019-01-06T00:11:33.034Z,4.60
2019-01-06T00:14:39.866Z,4.60
2019-01-06T00:17:40.396Z,4.50
2019-01-06T00:20:27.820Z,4.50
2019-01-06T00:23:31.270Z,4.50
2019-01-06T00:26:35.204Z,4.50
2019-01-06T00:29:29.752Z,4.50
2019-01-06T00:32:20.421Z,4.50
2019-01-06T00:35:28.034Z,4.60
2019-01-06T00:38:15.758Z,4.50
2019-01-06T00:41:19.339Z,4.60
2019-01-06T00:44:20.025Z,4.50
2019-01-06T00:47:17.899Z,4.40
2019-01-06T00:50:20.025Z,4.40
2019-01-06T00:53:14.994Z,4.50
2019-01-06T00:56:07.490Z,4.50
2019-01-06T00:59:00.515Z,4.40
2019-01-06T01:01:47.975Z,4.40
2019-01-06T01:04:53.729Z,4.40
2019-01-06T01:07:48.837Z,4.40
2019-01-06T01:10:36.136Z,4.40
2019-01-06T01:13:23.713Z,4.30
2019-01-06T01:16:15.158Z,4.30
2019-01-06T01:19:02.512Z,4.20
2019-01-06T01:22:00.537Z,4.20
2019-01-06T01:24:49.145Z,4.20
2019-01-06T01:27:36.532Z,4.10
2019-01-06T01:30:18.684Z,4.10
2019-01-06T01:33:05.852Z,4.00
2019-01-06T01:35:53.352Z,4.00
2019-01-06T01:38:41.102Z,4.00
2019-01-06T01:41:38.730Z,4.00
2019-01-06T01:44:24.743Z,4.00
2019-01-06T01:47:06.920Z,4.00
2019-01-06T01:49:46.154Z,4.10
2019-01-06T01:52:33.707Z,4.10
2019-01-06T01:55:21.098Z,4.10
2019-01-06T01:58:08.716Z,4.10
2019-01-06T02:00:55.526Z,4.10
2019-01-06T02:03:43.248Z,4.10
2019-01-06T02:06:34.733Z,4.10
2019-01-06T02:09:36.740Z,4.10
2019-01-06T02:12:31.126Z,4.10
2019-01-06T02:15:18.328Z,4.10
2019-01-06T02:18:05.573Z,4.10
2019-01-06T02:21:03.307Z,4.10
2019-01-06T02:23:42.574Z,4.10
2019-01-06T02:26:22.614Z,4.10
2019-01-06T02:29:10.335Z,4.10
2019-01-06T02:32:01.692Z,4.10
2019-01-06T02:34:48.852Z,4.10
2019-01-06T02:37:38.967Z,4.20
2019-01-06T02:40:29.663Z,4.10
2019-01-06T02:43:24.314Z,4.10
2019-01-06T02:46:11.551Z,4.10
2019-01-06T02:49:15.547Z,4.10
2019-01-06T02:52:18.895Z,4.00
2019-01-06T02:55:20.051Z,4.00
2019-01-06T02:58:14.859Z,4.00
2019-01-06T03:01:03.399Z,4.10
2019-01-06T03:03:50.818Z,4.10
2019-01-06T03:06:48.606Z,4.10
2019-01-06T03:09:35.810Z,4.00
2019-01-06T03:12:23.067Z,4.00
2019-01-06T03:15:17.424Z,4.00
2019-01-06T03:18:10.479Z,4.00
2019-01-06T03:20:57.669Z,4.00
2019-01-06T03:23:43.688Z,4.00
2019-01-06T03:26:28.135Z,3.90
2019-01-06T03:29:21.699Z,4.00
2019-01-06T03:32:10.233Z,4.00
2019-01-06T03:34:57.766Z,3.90
2019-01-06T03:37:39.245Z,3.90
2019-01-06T03:40:26.828Z,3.90
2019-01-06T03:43:08.688Z,3.90
2019-01-06T03:46:09.631Z,3.80
2019-01-06T03:49:05.238Z,3.70
2019-01-06T03:51:49.330Z,3.70
2019-01-06T03:54:36.706Z,3.70
2019-01-06T03:57:23.966Z,3.70
2019-01-06T04:00:30.840Z,3.70
2019-01-06T04:03:18.184Z,3.70
2019-01-06T04:06:16.358Z,3.70
2019-01-06T04:09:03.661Z,3.70
2019-01-06T04:11:55.090Z,3.80
2019-01-06T04:14:42.408Z,3.80
2019-01-06T04:17:49.508Z,3.70
2019-01-06T04:20:45.391Z,3.80
2019-01-06T04:23:34.399Z,3.80
2019-01-06T04:26:21.792Z,3.80
2019-01-06T04:29:13.348Z,3.80
2019-01-06T04:31:53.689Z,3.70
2019-01-06T04:34:51.371Z,3.70
2019-01-06T04:37:39.019Z,3.60
2019-01-06T04:40:26.763Z,3.60
2019-01-06T04:43:14.240Z,3.60
2019-01-06T04:46:02.895Z,3.60
2019-01-06T04:48:52.235Z,3.60
2019-01-06T04:54:33.425Z,3.60
2019-01-06T04:57:21.062Z,3.60
2019-01-06T05:00:12.616Z,3.60
2019-01-06T05:03:01.160Z,3.50
2019-01-06T05:05:48.580Z,3.50
2019-01-06T05:08:36.020Z,3.50
2019-01-06T05:11:30.663Z,3.50
2019-01-06T05:14:09.920Z,3.40
2019-01-06T05:16:54.002Z,3.40
2019-01-06T05:19:45.610Z,3.40
2019-01-06T05:22:31.209Z,3.40
2019-01-06T05:25:20.352Z,3.30
2019-01-06T05:28:07.741Z,3.30
2019-01-06T05:30:59.546Z,3.30
2019-01-06T05:33:46.899Z,3.30
2019-01-06T05:36:34.286Z,3.20
2019-01-06T05:39:33.031Z,3.20
2019-01-06T05:42:34.170Z,3.20
2019-01-06T05:45:31.954Z,3.30
2019-01-06T05:48:13.021Z,3.30
2019-01-06T05:50:54.859Z,3.30
2019-01-06T05:53:42.476Z,3.30
2019-01-06T05:56:30.994Z,3.30
2019-01-06T05:59:25.762Z,3.30
2019-01-06T06:02:05.538Z,3.30
2019-01-06T06:04:48.438Z,3.30
2019-01-06T06:07:52.478Z,3.30
2019-01-06T06:10:59.233Z,3.30
2019-01-06T06:13:47.807Z,3.30
2019-01-06T06:16:34.893Z,3.30
2019-01-06T06:19:35.545Z,3.20
2019-01-06T06:22:14.984Z,3.20
2019-01-06T06:25:02.238Z,3.20
2019-01-06T06:27:43.385Z,3.10
2019-01-06T06:30:34.769Z,3.10
2019-01-06T06:33:28.469Z,3.20
2019-01-06T06:36:16.991Z,3.20
2019-01-06T06:39:05.562Z,3.20
2019-01-06T06:41:52.531Z,3.20
2019-01-06T06:44:40.091Z,3.20
2019-01-06T06:47:26.916Z,3.20
2019-01-06T06:50:21.851Z,3.10
2019-01-06T06:53:03.724Z,3.10
2019-01-06T06:55:59.034Z,3.20
2019-01-06T06:58:50.687Z,3.10
2019-01-06T07:02:22.159Z,3.10
2019-01-06T07:05:16.939Z,3.10
2019-01-06T07:08:14.604Z,3.10
2019-01-06T07:11:01.969Z,3.20
2019-01-06T07:13:50.630Z,3.10
2019-01-06T07:17:27.542Z,3.10
2019-01-06T07:20:11.507Z,3.10
2019-01-06T07:22:54.680Z,3.20
2019-01-06T07:25:58.708Z,3.20
2019-01-06T07:28:45.998Z,3.20
2019-01-06T07:31:27.958Z,3.20
2019-01-06T07:34:19.802Z,3.20
2019-01-06T07:37:06.938Z,3.20
2019-01-06T07:40:13.695Z,3.20
2019-01-06T07:43:00.972Z,3.20
2019-01-06T07:45:58.269Z,3.20
2019-01-06T07:48:45.774Z,3.20
2019-01-06T07:51:55.697Z,3.10
2019-01-06T07:54:56.549Z,3.20
2019-01-06T07:57:45.120Z,3.20
2019-01-06T08:00:33.689Z,3.10
2019-01-06T08:03:22.757Z,3.20
2019-01-06T08:06:10.431Z,3.10
2019-01-06T08:08:56.269Z,3.10
2019-01-06T08:11:39.327Z,3.10
2019-01-06T08:14:26.461Z,3.20
2019-01-06T08:17:13.761Z,3.20
2019-01-06T08:20:14.541Z,3.10
2019-01-06T08:23:07.792Z,3.10
2019-01-06T08:25:55.383Z,3.10
2019-01-06T08:28:49.805Z,3.10
2019-01-06T08:31:32.692Z,3.10
2019-01-06T08:34:19.998Z,3.20
2019-01-06T08:37:14.510Z,3.20
2019-01-06T08:40:02.036Z,3.20
2019-01-06T08:43:08.982Z,3.20
2019-01-06T08:45:56.432Z,3.20
2019-01-06T08:48:54.014Z,3.20
2019-01-06T08:51:42.594Z,3.20
2019-01-06T08:54:25.665Z,3.30
2019-01-06T08:57:09.259Z,3.30
2019-01-06T08:59:56.527Z,3.30
2019-01-06T09:02:51.330Z,3.30
2019-01-06T09:05:44.004Z,3.30
2019-01-06T09:08:27.747Z,3.30
2019-01-06T09:11:19.386Z,3.30
2019-01-06T09:14:17.044Z,3.30
2019-01-06T09:17:10.796Z,3.30
2019-01-06T09:19:56.478Z,3.30
2019-01-06T09:23:00.229Z,3.40
2019-01-06T09:25:57.984Z,3.40
2019-01-06T09:29:04.797Z,3.40
2019-01-06T09:32:02.502Z,3.50
2019-01-06T09:34:49.101Z,3.50
2019-01-06T09:37:43.187Z,3.40
2019-01-06T09:40:30.595Z,3.40
2019-01-06T09:43:17.043Z,3.40
2019-01-06T09:46:05.701Z,3.40
2019-01-06T09:49:03.623Z,3.50
2019-01-06T09:52:02.513Z,3.50
2019-01-06T09:54:48.798Z,3.50
2019-01-06T09:57:46.452Z,3.50
2019-01-06T10:00:47.087Z,3.50
2019-01-06T10:03:44.735Z,3.50
2019-01-06T10:06:35.080Z,3.60
2019-01-06T10:09:29.247Z,3.50
2019-01-06T10:12:16.140Z,3.50
2019-01-06T10:15:11.840Z,3.50
2019-01-06T10:17:56.283Z,3.50
2019-01-06T10:20:47.701Z,3.50
2019-01-06T10:23:48.456Z,3.50
2019-01-06T10:26:42.825Z,3.50
2019-01-06T10:29:22.564Z,3.60
2019-01-06T10:32:12.373Z,3.60
2019-01-06T10:35:04.156Z,3.60
2019-01-06T10:37:49.644Z,3.70
2019-01-06T10:40:29.544Z,3.70
2019-01-06T10:43:14.582Z,3.70
2019-01-06T10:45:58.556Z,3.80
2019-01-06T10:48:40.408Z,3.80
2019-01-06T10:51:29.072Z,3.80
2019-01-06T10:54:13.235Z,3.90
2019-01-06T10:56:58.075Z,4.00
2019-01-06T10:59:45.481Z,4.00
2019-01-06T11:02:52.394Z,4.10
2019-01-06T11:05:41.317Z,4.20
2019-01-06T11:08:28.660Z,4.20
2019-01-06T11:11:16.881Z,4.20
2019-01-06T11:14:04.403Z,4.10
2019-01-06T11:17:11.233Z,4.10
2019-01-06T11:20:02.808Z,4.20
2019-01-06T11:22:50.175Z,4.20
2019-01-06T11:25:37.619Z,4.20
2019-01-06T11:28:29.327Z,4.20
2019-01-06T11:31:33.228Z,4.20
2019-01-06T11:34:17.597Z,4.10
2019-01-06T11:37:05.087Z,4.20
2019-01-06T11:39:45.826Z,4.10
2019-01-06T11:42:32.313Z,4.20
2019-01-06T11:45:19.761Z,4.10
2019-01-06T11:48:07.341Z,4.10
2019-01-06T11:50:52.952Z,4.10
2019-01-06T11:53:40.515Z,4.00
2019-01-06T11:56:32.035Z,4.10
2019-01-06T11:59:27.275Z,4.10
2019-01-06T12:02:25.249Z,4.10
2019-01-06T12:05:19.873Z,4.10
2019-01-06T12:08:00.979Z,4.10
2019-01-06T12:10:48.786Z,4.20
2019-01-06T12:13:55.650Z,4.20
2019-01-06T12:16:43.803Z,4.20
2019-01-06T12:19:33.706Z,4.20
2019-01-06T12:22:20.312Z,4.20
2019-01-06T12:25:07.705Z,4.20
2019-01-06T12:27:52.670Z,4.20
2019-01-06T12:30:50.292Z,4.20
2019-01-06T12:33:35.325Z,4.20
2019-01-06T12:36:36.147Z,4.20
2019-01-06T12:39:21.217Z,4.20
2019-01-06T12:42:08.576Z,4.20
2019-01-06T12:45:12.396Z,4.10
2019-01-06T12:48:05.610Z,4.10
2019-01-06T12:51:06.560Z,4.10
2019-01-06T12:53:54.053Z,4.00
2019-01-06T12:56:44.527Z,4.00
2019-01-06T12:59:32.142Z,4.00
2019-01-06T13:02:35.889Z,4.10
2019-01-06T13:05:23.443Z,4.00
2019-01-06T13:08:10.684Z,4.10
2019-01-06T13:11:07.063Z,4.00
2019-01-06T13:13:54.699Z,4.10
2019-01-06T13:16:52.983Z,4.00
2019-01-06T13:19:53.755Z,4.00
2019-01-06T13:22:41.135Z,4.00
2019-01-06T13:25:28.600Z,4.00
2019-01-06T13:28:27.947Z,4.10
2019-01-06T13:31:15.223Z,4.10
2019-01-06T13:34:03.896Z,4.10
2019-01-06T13:36:51.597Z,4.10
2019-01-06T13:39:39.101Z,4.10
2019-01-06T13:42:28.235Z,4.10
2019-01-06T13:45:15.734Z,4.10
2019-01-06T13:48:04.363Z,4.00
2019-01-06T13:50:51.688Z,4.00
2019-01-06T13:53:46.487Z,4.10
2019-01-06T13:56:43.916Z,4.10
2019-01-06T13:59:45.014Z,4.00
2019-01-06T14:02:32.265Z,4.00
2019-01-06T14:05:36.334Z,3.90
2019-01-06T14:08:25.214Z,4.00
2019-01-06T14:11:20.932Z,3.90
2019-01-06T14:14:08.535Z,4.00
2019-01-06T14:16:51.454Z,3.90
2019-01-06T14:19:37.446Z,3.90
2019-01-06T14:22:24.864Z,3.90
2019-01-06T14:25:12.200Z,3.90
2019-01-06T14:28:07.608Z,3.90
2019-01-06T14:31:05.646Z,3.90
2019-01-06T14:34:03.478Z,3.90
2019-01-06T14:37:10.179Z,3.90
2019-01-06T14:40:01.340Z,3.90
2019-01-06T14:42:59.008Z,3.90
2019-01-06T14:46:05.888Z,3.90
2019-01-06T14:49:09.661Z,3.80
2019-01-06T14:51:55.867Z,3.90
2019-01-06T14:54:43.348Z,3.90
2019-01-06T14:57:44.363Z,3.90
2019-01-06T15:00:39.861Z,3.80
2019-01-06T15:03:27.119Z,3.80
2019-01-06T15:06:18.576Z,3.80
2019-01-06T15:09:06.283Z,3.80
2019-01-06T15:11:57.846Z,3.80
2019-01-06T15:14:46.501Z,3.80
2019-01-06T15:17:33.805Z,3.70
2019-01-06T15:20:23.040Z,3.70
2019-01-06T15:23:09.453Z,3.70
2019-01-06T15:25:58.041Z,3.70
2019-01-06T15:28:45.317Z,3.70
2019-01-06T15:31:40.068Z,3.60
2019-01-06T15:34:33.428Z,3.60
2019-01-06T15:37:20.545Z,3.60
2019-01-06T15:40:24.277Z,3.60
2019-01-06T15:43:13.036Z,3.60
2019-01-06T15:46:17.566Z,3.50
2019-01-06T15:49:15.572Z,3.50
2019-01-06T15:52:10.391Z,3.60
2019-01-06T15:54:49.283Z,3.50
2019-01-06T15:57:47.702Z,3.50
2019-01-06T16:00:41.788Z,3.50
2019-01-06T16:03:29.142Z,3.50
2019-01-06T16:06:17.930Z,3.40
2019-01-06T16:09:05.392Z,3.40
2019-01-06T16:11:52.671Z,3.40
2019-01-06T16:14:55.718Z,3.40
2019-01-06T16:17:43.026Z,3.40
2019-01-06T16:20:24.378Z,3.40
2019-01-06T16:23:21.776Z,3.40
2019-01-06T16:26:01.336Z,3.40
2019-01-06T16:28:51.912Z,3.40
2019-01-06T16:31:39.259Z,3.40
2019-01-06T16:34:28.806Z,3.40
2019-01-06T16:37:16.028Z,3.40
2019-01-06T16:40:03.218Z,3.40
2019-01-06T16:42:57.943Z,3.40
2019-01-06T16:46:05.665Z,3.50
2019-01-06T16:49:04.870Z,3.40
2019-01-06T16:52:04.977Z,3.50
2019-01-06T16:54:53.555Z,3.50
2019-01-06T16:57:35.477Z,3.50
2019-01-06T17:00:23.157Z,3.50
2019-01-06T17:03:09.988Z,3.50
2019-01-06T17:05:48.378Z,3.50
2019-01-06T17:08:45.056Z,3.50
2019-01-06T17:11:44.145Z,3.50
2019-01-06T17:14:24.773Z,3.50
2019-01-06T17:17:10.290Z,3.50
2019-01-06T17:20:07.829Z,3.50
2019-01-06T17:23:02.391Z,3.50
2019-01-06T17:26:09.443Z,3.50
2019-01-06T17:29:11.921Z,3.50
2019-01-06T17:31:59.575Z,3.50
2019-01-06T17:34:51.222Z,3.50
2019-01-06T17:37:42.812Z,3.50
2019-01-06T17:40:40.640Z,3.50
2019-01-06T17:43:28.184Z,3.50
2019-01-06T17:46:26.081Z,3.50
2019-01-06T17:49:32.864Z,3.50
2019-01-06T17:52:33.640Z,3.50
2019-01-06T17:55:22.640Z,3.50
2019-01-06T17:58:10.248Z,3.50
2019-01-06T18:01:10.780Z,3.50
2019-01-06T18:03:55.595Z,3.40
2019-01-06T18:06:43.119Z,3.50
2019-01-06T18:09:30.601Z,3.40
2019-01-06T18:12:18.002Z,3.50
2019-01-06T18:15:05.605Z,3.50
2019-01-06T18:18:06.192Z,3.50
2019-01-06T18:20:54.825Z,3.50
2019-01-06T18:23:42.140Z,3.50
2019-01-06T18:26:29.605Z,3.50
2019-01-06T18:29:17.119Z,3.50
2019-01-06T18:32:04.685Z,3.50
2019-01-06T18:34:42.795Z,3.50
2019-01-06T18:37:31.351Z,3.50
2019-01-06T18:40:19.934Z,3.50
2019-01-06T18:43:21.235Z,3.50
2019-01-06T18:46:08.733Z,3.50
2019-01-06T18:48:55.996Z,3.40
2019-01-06T18:51:43.281Z,3.50
2019-01-06T18:54:32.301Z,3.50
2019-01-06T18:57:36.151Z,3.50
2019-01-06T19:00:24.499Z,3.40
2019-01-06T19:03:19.239Z,3.50
2019-01-06T19:06:26.438Z,3.50
2019-01-06T19:09:26.560Z,3.50
2019-01-06T19:12:15.146Z,3.50
2019-01-06T19:15:02.569Z,3.50
2019-01-06T19:17:50.166Z,3.40
2019-01-06T19:20:38.780Z,3.40
2019-01-06T19:23:29.527Z,3.40
2019-01-06T19:26:26.979Z,3.40
2019-01-06T19:29:21.712Z,3.40
2019-01-06T19:32:08.970Z,3.40
2019-01-06T19:34:56.553Z,3.40
2019-01-06T19:37:53.861Z,3.40
2019-01-06T19:40:45.920Z,3.40
2019-01-06T19:43:43.553Z,3.40
2019-01-06T19:46:31.130Z,3.40
2019-01-06T19:49:22.734Z,3.40
2019-01-06T19:52:13.026Z,3.40
2019-01-06T19:55:18.842Z,3.40
2019-01-06T19:58:07.550Z,3.40
2019-01-06T20:01:01.334Z,3.40
2019-01-06T20:03:48.284Z,3.40
2019-01-06T20:06:35.913Z,3.40
2019-01-06T20:09:23.068Z,3.30
2019-01-06T20:12:12.561Z,3.30
2019-01-06T20:15:19.323Z,3.30
2019-01-06T20:18:06.965Z,3.30
2019-01-06T20:20:51.599Z,3.30
2019-01-06T20:23:43.065Z,3.30
2019-01-06T20:26:26.547Z,3.30
2019-01-06T20:29:15.101Z,3.20
2019-01-06T20:31:55.259Z,3.20
2019-01-06T20:34:36.923Z,3.30
2019-01-06T20:37:22.649Z,3.20
2019-01-06T20:40:11.320Z,3.30
2019-01-06T20:42:58.577Z,3.20
2019-01-06T20:45:46.137Z,3.20
2019-01-06T20:48:44.052Z,3.30
2019-01-06T20:51:45.259Z,3.30
2019-01-06T20:54:32.811Z,3.30
2019-01-06T20:57:39.543Z,3.30
2019-01-06T21:00:36.185Z,3.30
2019-01-06T21:03:23.584Z,3.20
2019-01-06T21:06:10.797Z,3.20
2019-01-06T21:08:58.256Z,3.30
2019-01-06T21:11:45.933Z,3.30
2019-01-06T21:14:46.609Z,3.20
2019-01-06T21:17:53.536Z,3.20
2019-01-06T21:20:40.932Z,3.20
2019-01-06T21:23:28.303Z,3.30
2019-01-06T21:26:15.506Z,3.30
2019-01-06T21:28:59.009Z,3.20
2019-01-06T21:31:59.914Z,3.20
2019-01-06T21:35:03.630Z,3.20
2019-01-06T21:38:04.218Z,3.20
2019-01-06T21:41:07.862Z,3.20
2019-01-06T21:43:59.266Z,3.20
2019-01-06T21:47:01.066Z,3.20
2019-01-06T21:49:48.603Z,3.20
2019-01-06T21:52:35.238Z,3.10
2019-01-06T21:55:22.698Z,3.10
2019-01-06T21:58:10.118Z,3.10
2019-01-06T22:00:56.559Z,3.00
2019-01-06T22:03:46.080Z,3.10
2019-01-06T22:06:39.589Z,3.00
2019-01-06T22:09:27.129Z,2.90
2019-01-06T22:12:14.645Z,2.90
2019-01-06T22:15:01.955Z,2.90
2019-01-06T22:18:05.799Z,2.90
2019-01-06T22:20:52.958Z,3.00
2019-01-06T22:23:50.673Z,3.00
2019-01-06T22:26:44.937Z,3.00
2019-01-06T22:29:42.466Z,3.10
2019-01-06T22:32:37.495Z,3.10
2019-01-06T22:35:35.353Z,3.10
2019-01-06T22:38:21.985Z,3.10
2019-01-06T22:41:05.946Z,3.10
2019-01-06T22:43:54.447Z,3.10
2019-01-06T22:46:35.175Z,3.10
2019-01-06T22:49:22.489Z,3.10
2019-01-06T22:52:06.407Z,3.10
2019-01-06T22:55:04.028Z,3.10
2019-01-06T22:58:07.715Z,3.10
2019-01-06T23:00:56.694Z,3.10
2019-01-06T23:03:51.580Z,3.00
2019-01-06T23:06:38.873Z,3.00
2019-01-06T23:09:26.491Z,3.00
2019-01-06T23:12:07.891Z,3.00
2019-01-06T23:14:55.330Z,3.00
2019-01-06T23:17:42.770Z,3.00
2019-01-06T23:20:29.556Z,3.00
2019-01-06T23:23:30.063Z,2.90
2019-01-06T23:26:37.095Z,3.00
2019-01-06T23:29:28.567Z,3.00
2019-01-06T23:32:10.591Z,2.90
2019-01-06T23:34:50.205Z,3.00
2019-01-06T23:37:32.962Z,3.00
2019-01-06T23:40:21.505Z,3.00
2019-01-06T23:43:07.171Z,3.00
2019-01-06T23:46:01.469Z,3.00
2019-01-06T23:48:56.127Z,3.00
2019-01-06T23:51:47.750Z,3.00
2019-01-06T23:54:34.986Z,3.00
2019-01-06T23:57:22.291Z,3.00
